Time;durP1;ratioP1;P1;durP2;ratioP2;P2;SDS_P1;SDS_P2;PMS_P1;PMS_P2;Temp;Humidity;BMP_temperature;BMP_pressure;BME280_temperature;BME280_humidity;BME280_pressure;Samples;Min_cycle;Max_cycle;Signal;HPM_P1;HPM_P2
2021/09/01 00:00:25;;;;;;;8.85;5.90;;;;;;;11.72;86.33;101359.41;5062203;28;20514;-77
2021/09/01 00:02:50;;;;;;;8.82;5.50;;;;;;;11.69;86.40;101368.22;5064536;28;20115;-76
2021/09/01 00:05:15;;;;;;;10.32;6.20;;;;;;;11.69;86.25;101365.56;5061114;28;20411;-77
2021/09/01 00:07:42;;;;;;;8.52;5.57;;;;;;;11.64;86.46;101364.69;5061519;28;20111;-77
2021/09/01 00:10:08;;;;;;;8.52;5.50;;;;;;;11.60;86.57;101365.53;5064693;28;20388;-76
2021/09/01 00:12:34;;;;;;;8.93;5.20;;;;;;;11.59;87.06;101372.59;5061524;28;20041;-77
2021/09/01 00:15:00;;;;;;;8.88;5.95;;;;;;;11.58;86.77;101365.53;5064261;28;20040;-78
2021/09/01 00:17:25;;;;;;;8.40;5.45;;;;;;;11.57;86.86;101366.41;5042509;28;20410;-77
2021/09/01 00:19:51;;;;;;;9.43;6.28;;;;;;;11.56;87.32;101375.22;5062180;28;20043;-77
2021/09/01 00:22:16;;;;;;;9.45;5.78;;;;;;;11.57;87.45;101378.75;5063065;28;20045;-77
2021/09/01 00:24:42;;;;;;;8.45;5.65;;;;;;;11.54;87.50;101370.81;5062936;28;20048;-77
2021/09/01 00:27:07;;;;;;;10.18;5.97;;;;;;;11.52;87.73;101372.56;5062048;28;20064;-77
2021/09/01 00:29:35;;;;;;;9.57;5.70;;;;;;;11.52;87.41;101367.28;5063433;28;20115;-77
2021/09/01 00:32:02;;;;;;;8.38;5.80;;;;;;;11.53;87.45;101369.06;5061861;28;20525;-77
2021/09/01 00:34:27;;;;;;;9.25;5.97;;;;;;;11.50;87.66;101369.94;5063455;28;20040;-77
2021/09/01 00:36:52;;;;;;;8.13;5.72;;;;;;;11.49;87.44;101380.47;5060916;28;20122;-77
2021/09/01 00:39:18;;;;;;;9.48;6.13;;;;;;;11.49;87.80;101376.06;5064188;28;20090;-77
2021/09/01 00:41:43;;;;;;;10.52;6.13;;;;;;;11.51;87.85;101368.16;5042847;28;20029;-77
2021/09/01 00:44:25;;;;;;;9.75;5.68;;;;;;;11.51;87.50;101374.31;5063957;28;20089;-77
2021/09/01 00:46:51;;;;;;;12.95;5.43;;;;;;;11.53;87.58;101374.34;5059368;28;20032;-77
2021/09/01 00:49:17;;;;;;;11.05;6.13;;;;;;;11.52;87.54;101375.19;5063015;28;20044;-77
2021/09/01 00:51:47;;;;;;;8.57;6.05;;;;;;;11.51;87.77;101369.03;5060192;28;20151;-77
2021/09/01 00:54:16;;;;;;;9.48;5.65;;;;;;;11.53;87.74;101369.94;5063062;28;20549;-77
2021/09/01 00:56:44;;;;;;;8.57;5.47;;;;;;;11.50;87.70;101367.28;5061217;28;20403;-77
2021/09/01 00:59:14;;;;;;;10.27;5.60;;;;;;;11.50;88.05;101369.94;5062820;28;20036;-77
2021/09/01 01:01:41;;;;;;;10.30;5.80;;;;;;;11.50;87.70;101371.66;5061513;28;20110;-77
2021/09/01 01:04:06;;;;;;;9.25;5.78;;;;;;;11.48;87.88;101369.03;5062663;28;20086;-77
2021/09/01 01:06:33;;;;;;;10.88;5.78;;;;;;;11.46;87.62;101369.91;5060595;28;20520;-77
2021/09/01 01:08:58;;;;;;;11.98;6.07;;;;;;;11.46;87.86;101375.19;5063083;28;20032;-77
2021/09/01 01:11:24;;;;;;;8.60;5.97;;;;;;;11.44;88.39;101383.09;5060263;28;20039;-77
2021/09/01 01:13:50;;;;;;;9.38;6.03;;;;;;;11.45;88.30;101382.25;5045718;28;20032;-77
2021/09/01 01:16:17;;;;;;;10.40;6.05;;;;;;;11.45;88.16;101378.69;5041772;28;20114;-77
2021/09/01 01:18:46;;;;;;;10.57;6.03;;;;;;;11.43;87.96;101380.47;5055908;28;20029;-77
2021/09/01 01:21:15;;;;;;;9.32;5.97;;;;;;;11.43;88.12;101377.84;5056000;28;20041;-76
2021/09/01 01:23:41;;;;;;;11.57;6.15;;;;;;;11.40;88.07;101376.94;5056179;28;20070;-77
2021/09/01 01:26:07;;;;;;;9.93;5.95;;;;;;;11.40;87.96;101386.63;5055406;28;20139;-77
2021/09/01 01:28:32;;;;;;;8.93;5.47;;;;;;;11.40;88.29;101387.50;5061497;28;20044;-77
2021/09/01 01:30:57;;;;;;;11.27;6.30;;;;;;;11.39;87.78;101392.78;5059369;28;20037;-77
2021/09/01 01:33:23;;;;;;;9.07;5.90;;;;;;;11.35;88.39;101389.25;5062373;28;20072;-77
2021/09/01 01:35:49;;;;;;;10.77;6.18;;;;;;;11.36;88.54;101385.72;5060595;28;20040;-77
2021/09/01 01:38:17;;;;;;;9.90;6.25;;;;;;;11.33;88.66;101391.00;5044098;28;20041;-77
2021/09/01 01:40:43;;;;;;;8.93;5.60;;;;;;;11.29;88.48;101388.31;5061106;28;20040;-77
2021/09/01 01:43:09;;;;;;;10.05;5.97;;;;;;;11.26;88.47;101380.38;5061240;28;20072;-77
2021/09/01 01:45:45;;;;;;;10.27;6.38;;;;;;;11.23;88.92;101383.00;5062458;28;20507;-77
2021/09/01 01:48:13;;;;;;;10.90;7.07;;;;;;;11.23;88.61;101378.59;5060591;28;20440;-77
2021/09/01 01:50:39;;;;;;;8.25;5.55;;;;;;;11.22;88.96;101382.13;5061992;28;20060;-77
2021/09/01 01:53:06;;;;;;;8.45;6.40;;;;;;;11.22;88.54;101382.13;5060561;28;20076;-76
2021/09/01 01:55:31;;;;;;;7.95;5.80;;;;;;;11.22;89.06;101383.91;5061250;28;20044;-77
2021/09/01 01:57:57;;;;;;;10.88;5.95;;;;;;;11.20;89.08;101383.88;5061075;28;20071;-77
2021/09/01 02:00:22;;;;;;;10.55;6.38;;;;;;;11.20;88.86;101389.16;5058918;28;20086;-77
2021/09/01 02:02:47;;;;;;;8.75;5.75;;;;;;;11.18;88.93;101382.97;5058534;28;20040;-76
2021/09/01 02:05:13;;;;;;;10.70;6.57;;;;;;;11.17;88.79;101383.88;5059692;28;20119;-77
2021/09/01 02:07:39;;;;;;;11.75;6.63;;;;;;;11.13;88.81;101383.00;5061644;28;20120;-77
2021/09/01 02:10:07;;;;;;;9.95;6.82;;;;;;;11.13;89.08;101384.72;5054633;28;20033;-77
2021/09/01 02:12:33;;;;;;;8.85;6.03;;;;;;;11.13;89.52;101392.66;5062397;28;20032;-77
2021/09/01 02:14:59;;;;;;;9.38;6.00;;;;;;;11.13;89.10;101392.66;5059249;28;20051;-78
2021/09/01 02:17:26;;;;;;;8.82;5.78;;;;;;;11.16;88.96;101395.28;5054903;28;20490;-77
2021/09/01 02:19:51;;;;;;;9.43;6.15;;;;;;;11.16;88.93;101390.94;5062516;28;20027;-77
2021/09/01 02:22:17;;;;;;;8.85;5.78;;;;;;;11.17;89.08;101389.16;5024926;28;20040;-77
2021/09/01 02:24:42;;;;;;;9.13;5.97;;;;;;;11.17;88.75;101389.16;5061849;28;20076;-77
2021/09/01 02:27:08;;;;;;;11.55;6.65;;;;;;;11.13;88.57;101382.06;5059618;28;20086;-77
2021/09/01 02:29:34;;;;;;;8.35;5.90;;;;;;;11.13;88.40;101388.28;5060374;28;20461;-77
2021/09/01 02:31:59;;;;;;;9.75;5.88;;;;;;;11.13;88.59;101390.91;5060786;28;20033;-77
2021/09/01 02:34:25;;;;;;;11.98;6.72;;;;;;;11.13;88.51;101390.00;5061066;28;20036;-77
2021/09/01 02:36:50;;;;;;;8.40;6.10;;;;;;;11.14;89.29;101391.78;5059895;28;20063;-77
2021/09/01 02:39:16;;;;;;;8.90;6.13;;;;;;;11.15;89.09;101389.13;5061618;28;20036;-77
2021/09/01 02:41:41;;;;;;;13.30;8.45;;;;;;;11.19;89.44;101390.06;5059165;28;20037;-77
2021/09/01 02:44:06;;;;;;;10.10;6.40;;;;;;;11.20;88.99;101391.81;5062400;28;20032;-77
2021/09/01 02:46:32;;;;;;;14.80;8.27;;;;;;;11.23;89.16;101385.66;5058377;28;20037;-77
2021/09/01 02:48:57;;;;;;;9.32;6.65;;;;;;;11.26;89.01;101393.59;5061472;28;20036;-77
2021/09/01 02:51:22;;;;;;;9.57;6.63;;;;;;;11.28;89.41;101382.16;5061724;28;20029;-77
2021/09/01 02:53:48;;;;;;;10.07;7.07;;;;;;;11.34;89.34;101386.56;5059607;28;20086;-77
2021/09/01 02:56:13;;;;;;;10.15;6.32;;;;;;;11.44;88.90;101382.22;5042747;28;20045;-77
2021/09/01 02:58:38;;;;;;;15.82;7.63;;;;;;;11.47;89.11;101383.09;5060430;28;20044;-77
2021/09/01 03:01:04;;;;;;;15.20;8.30;;;;;;;11.50;88.60;101380.50;5060259;28;20037;-78
2021/09/01 03:03:29;;;;;;;12.88;8.90;;;;;;;11.51;88.52;101378.75;5061000;28;20102;-77
2021/09/01 03:05:55;;;;;;;14.07;9.15;;;;;;;11.49;87.81;101377.84;5061645;28;20090;-77
2021/09/01 03:08:20;;;;;;;14.93;9.43;;;;;;;11.45;88.57;101383.97;5061656;28;20090;-77
2021/09/01 03:10:45;;;;;;;13.82;9.10;;;;;;;11.38;88.31;101377.81;5058612;28;20052;-77
2021/09/01 03:13:11;;;;;;;11.63;7.35;;;;;;;11.38;88.54;101383.97;5044280;28;20024;-77
2021/09/01 03:15:36;;;;;;;14.40;8.93;;;;;;;11.40;89.13;101384.00;5061457;28;20029;-78
2021/09/01 03:18:02;;;;;;;15.15;10.45;;;;;;;11.45;88.76;101386.63;5047516;28;20502;-77
2021/09/01 03:20:27;;;;;;;13.32;8.95;;;;;;;11.52;88.86;101383.13;5062794;28;20040;-77
2021/09/01 03:22:52;;;;;;;12.65;9.18;;;;;;;11.57;89.39;101384.03;5064546;28;20108;-76
2021/09/01 03:25:18;;;;;;;12.23;8.88;;;;;;;11.61;89.37;101385.81;5063148;28;20495;-77
2021/09/01 03:27:43;;;;;;;15.85;10.40;;;;;;;11.61;89.22;101380.53;5063834;28;20060;-77
2021/09/01 03:30:09;;;;;;;11.48;8.23;;;;;;;11.65;89.19;101381.41;5064157;28;20036;-77
2021/09/01 03:32:35;;;;;;;13.57;8.45;;;;;;;11.63;88.13;101384.94;5063154;28;20402;-77
2021/09/01 03:35:00;;;;;;;14.00;8.98;;;;;;;11.61;88.69;101385.81;5064692;28;20028;-77
2021/09/01 03:37:25;;;;;;;20.73;11.70;;;;;;;11.54;88.59;101382.25;5062000;28;20549;-77
2021/09/01 03:39:51;;;;;;;13.98;9.35;;;;;;;11.51;88.73;101378.75;5063439;28;20108;-77
2021/09/01 03:42:17;;;;;;;15.48;9.30;;;;;;;11.45;88.66;101374.31;5064883;28;20486;-77
2021/09/01 03:44:42;;;;;;;17.00;9.38;;;;;;;11.44;88.72;101382.22;5061867;28;20053;-76
2021/09/01 03:47:08;;;;;;;14.43;9.65;;;;;;;11.41;88.87;101386.63;5064523;28;20082;-77
2021/09/01 03:49:33;;;;;;;15.10;9.30;;;;;;;11.37;88.61;101383.94;5062463;28;20467;-78
2021/09/01 03:51:58;;;;;;;12.27;8.60;;;;;;;11.31;89.12;101384.81;5040030;28;20131;-77
2021/09/01 03:54:24;;;;;;;12.90;9.43;;;;;;;11.29;89.08;101380.38;5063454;28;20037;-77
2021/09/01 03:56:49;;;;;;;15.98;9.38;;;;;;;11.25;89.01;101382.16;5063120;28;20032;-77
2021/09/01 03:59:15;;;;;;;16.80;9.60;;;;;;;11.24;89.61;101383.03;5028655;28;20486;-77
2021/09/01 04:01:40;;;;;;;13.90;8.98;;;;;;;11.23;89.56;101386.53;5064021;28;20036;-77
2021/09/01 04:04:06;;;;;;;15.77;8.80;;;;;;;11.23;89.36;101388.31;5062016;28;20119;-78
2021/09/01 04:06:32;;;;;;;13.20;9.18;;;;;;;11.22;89.65;101392.72;5064182;28;20127;-78
2021/09/01 04:08:58;;;;;;;15.90;9.93;;;;;;;11.18;90.04;101391.78;5061331;28;20071;-77
2021/09/01 04:11:23;;;;;;;12.50;9.07;;;;;;;11.10;90.08;101397.91;5064769;28;20521;-78
2021/09/01 04:13:49;;;;;;;14.68;9.75;;;;;;;11.07;90.68;101398.78;5061499;28;20045;-78
2021/09/01 04:16:14;;;;;;;17.42;11.00;;;;;;;11.04;90.38;101398.78;5064657;28;20055;-79
2021/09/01 04:18:40;;;;;;;13.27;9.38;;;;;;;11.03;90.26;101399.66;5063697;28;20065;-79
2021/09/01 04:21:05;;;;;;;15.70;9.88;;;;;;;10.98;90.10;101404.03;5050033;28;20029;-78
2021/09/01 04:23:31;;;;;;;12.60;9.23;;;;;;;10.93;90.54;101401.34;5062614;28;20482;-78
2021/09/01 04:25:56;;;;;;;12.45;9.07;;;;;;;10.92;90.56;101410.13;5063631;28;20384;-79
2021/09/01 04:28:21;;;;;;;16.10;10.15;;;;;;;10.93;90.76;101411.03;5063882;28;20048;-79
2021/09/01 04:30:47;;;;;;;14.27;10.25;;;;;;;10.94;90.86;101407.50;5063043;28;20072;-78
2021/09/01 04:33:13;;;;;;;17.70;10.00;;;;;;;10.92;90.42;101404.84;5064766;28;20036;-77
2021/09/01 04:35:38;;;;;;;15.40;9.90;;;;;;;10.93;90.70;101404.00;5061838;28;20040;-77
2021/09/01 04:38:04;;;;;;;19.55;10.38;;;;;;;10.91;90.30;101405.72;5047375;28;20036;-78
2021/09/01 04:40:31;;;;;;;12.88;9.63;;;;;;;10.94;90.03;101402.22;5063053;28;20080;-80
2021/09/01 04:42:56;;;;;;;12.75;9.48;;;;;;;10.94;90.23;101395.19;5055852;28;20044;-79
2021/09/01 04:45:21;;;;;;;15.13;10.80;;;;;;;10.95;90.11;101404.91;5060945;28;20032;-78
2021/09/01 04:47:47;;;;;;;16.60;9.65;;;;;;;11.01;90.30;101398.75;5031910;28;20036;-78
2021/09/01 04:50:12;;;;;;;14.38;11.15;;;;;;;10.96;90.40;101406.66;5064348;28;20128;-80
2021/09/01 04:52:38;;;;;;;14.90;10.95;;;;;;;10.99;90.54;101410.19;5045334;28;20032;-79
2021/09/01 04:55:04;;;;;;;14.10;10.55;;;;;;;11.00;91.10;101409.31;5044321;28;20017;-80
2021/09/01 04:57:30;;;;;;;16.13;10.73;;;;;;;11.04;91.41;101403.19;5064255;28;20067;-80
2021/09/01 04:59:55;;;;;;;15.05;10.60;;;;;;;11.06;91.35;101412.00;5044714;28;20041;-80
2021/09/01 05:02:20;;;;;;;14.27;9.48;;;;;;;11.07;91.44;101411.13;5066441;28;20028;-81
2021/09/01 05:04:46;;;;;;;16.05;10.10;;;;;;;11.09;91.85;101409.38;5045019;28;20482;-80
2021/09/01 05:07:11;;;;;;;12.57;10.18;;;;;;;11.14;91.84;101408.53;5048341;28;20113;-80
2021/09/01 05:09:36;;;;;;;15.27;10.95;;;;;;;11.20;91.83;101410.31;5062781;28;20438;-80
2021/09/01 05:12:02;;;;;;;13.55;9.82;;;;;;;11.27;91.38;101411.25;5051903;28;20616;-80
2021/09/01 05:14:27;;;;;;;16.05;10.95;;;;;;;11.33;91.58;101401.56;5048237;28;20441;-80
2021/09/01 05:16:52;;;;;;;17.63;10.35;;;;;;;11.36;91.26;101398.94;5063053;28;20376;-80
2021/09/01 05:19:18;;;;;;;15.13;11.43;;;;;;;11.45;91.38;101407.78;5065133;28;20423;-80
2021/09/01 05:21:52;;;;;;;14.05;9.95;;;;;;;11.52;91.06;101409.56;5045929;28;20482;-81
2021/09/01 05:24:36;;;;;;;16.20;11.52;;;;;;;11.58;91.07;101418.44;5045969;28;20058;-81
2021/09/01 05:27:21;;;;;;;15.98;11.27;;;;;;;11.67;91.01;101419.34;5046606;28;20489;-80
2021/09/01 05:29:49;;;;;;;16.00;10.65;;;;;;;11.75;90.96;101418.47;5050947;28;20392;-79
2021/09/01 05:32:19;;;;;;;20.67;13.15;;;;;;;11.79;90.92;101414.97;5039297;28;20028;-79
2021/09/01 05:34:47;;;;;;;15.32;11.55;;;;;;;11.86;90.58;101423.81;5051516;28;20037;-80
2021/09/01 05:37:13;;;;;;;15.88;12.00;;;;;;;11.91;90.26;101416.78;5050312;28;20036;-80
2021/09/01 05:39:46;;;;;;;17.33;11.23;;;;;;;11.95;89.96;101428.28;5060421;28;20411;-80
2021/09/01 05:42:16;;;;;;;17.33;11.63;;;;;;;12.00;89.93;101423.88;5041183;28;20059;-81
2021/09/01 05:44:41;;;;;;;15.90;12.10;;;;;;;12.05;89.46;101419.44;5061571;28;20076;-80
2021/09/01 05:47:08;;;;;;;15.63;11.27;;;;;;;12.14;89.37;101432.72;5061338;28;20072;-79
2021/09/01 05:49:35;;;;;;;15.75;11.60;;;;;;;12.23;89.23;101424.78;5058671;28;20461;-80
2021/09/01 05:52:02;;;;;;;18.05;12.02;;;;;;;12.30;88.54;101424.78;5064687;28;20036;-80
2021/09/01 05:54:28;;;;;;;18.00;12.57;;;;;;;12.36;89.18;101436.25;5046506;28;20160;-79
2021/09/01 05:57:00;;;;;;;15.88;10.35;;;;;;;12.50;88.75;101436.28;5061353;28;20568;-79
2021/09/01 05:59:29;;;;;;;13.77;10.82;;;;;;;12.61;88.52;101436.28;5053151;28;20042;-80
2021/09/01 06:02:02;;;;;;;14.48;10.60;;;;;;;12.81;88.25;101441.56;5060176;28;20040;-78
2021/09/01 06:04:30;;;;;;;12.68;10.15;;;;;;;13.06;87.54;101440.66;5046623;28;20033;-78
2021/09/01 06:06:58;;;;;;;15.32;10.23;;;;;;;13.25;86.93;101428.22;5069671;28;20029;-78
2021/09/01 06:09:26;;;;;;;15.80;10.57;;;;;;;13.43;86.69;101432.63;5067708;28;20036;-78
2021/09/01 06:11:53;;;;;;;13.35;10.40;;;;;;;13.71;85.91;101429.88;5071118;28;20494;-78
2021/09/01 06:14:18;;;;;;;12.63;9.65;;;;;;;13.81;85.09;101436.91;5069732;28;20102;-77
2021/09/01 06:16:44;;;;;;;15.55;10.43;;;;;;;13.81;85.13;101453.69;5066853;28;20104;-78
2021/09/01 06:19:09;;;;;;;13.77;10.57;;;;;;;13.84;85.08;101450.16;5079037;28;20043;-78
2021/09/01 06:21:34;;;;;;;14.73;9.90;;;;;;;13.97;84.88;101453.63;5077772;28;20037;-78
2021/09/01 06:24:00;;;;;;;15.07;11.25;;;;;;;13.93;84.44;101457.16;5081943;28;20040;-78
2021/09/01 06:26:25;;;;;;;15.35;10.48;;;;;;;13.87;84.85;101466.06;5075156;28;20395;-78
2021/09/01 06:28:50;;;;;;;14.95;10.18;;;;;;;13.81;84.51;101463.44;5075589;28;20032;-78
2021/09/01 06:31:16;;;;;;;15.15;10.43;;;;;;;13.76;84.90;101468.75;5056220;28;20040;-78
2021/09/01 06:33:41;;;;;;;12.85;10.00;;;;;;;13.87;85.27;101481.97;5075000;28;20052;-78
2021/09/01 06:36:06;;;;;;;14.82;10.45;;;;;;;14.02;84.49;101473.94;5073862;28;20040;-79
2021/09/01 06:38:32;;;;;;;16.92;10.23;;;;;;;14.19;83.35;101486.22;5072698;28;20441;-79
2021/09/01 06:40:57;;;;;;;12.70;9.88;;;;;;;14.23;83.55;101480.91;5074993;28;20119;-79
2021/09/01 06:43:23;;;;;;;15.40;10.80;;;;;;;14.29;83.56;101485.28;5054354;28;20096;-78
2021/09/01 06:45:48;;;;;;;14.35;9.80;;;;;;;14.28;83.86;101479.97;5075516;28;20391;-79
2021/09/01 06:48:14;;;;;;;15.57;11.32;;;;;;;14.31;84.02;101487.94;5070857;28;20038;-78
2021/09/01 06:50:39;;;;;;;17.15;10.70;;;;;;;14.29;84.11;101495.91;5077626;28;20028;-78
2021/09/01 06:53:05;;;;;;;15.88;10.07;;;;;;;14.34;83.78;101493.22;5058232;28;20039;-79
2021/09/01 06:55:30;;;;;;;16.45;10.70;;;;;;;14.30;83.79;101500.31;5076202;28;20059;-78
2021/09/01 06:57:55;;;;;;;15.93;12.23;;;;;;;14.36;83.46;101497.63;5057191;28;20032;-78
2021/09/01 07:00:21;;;;;;;16.70;11.25;;;;;;;14.39;83.04;101499.41;5076544;28;20032;-79
2021/09/01 07:02:46;;;;;;;14.80;11.05;;;;;;;14.59;82.88;101496.63;5076314;28;20032;-79
2021/09/01 07:05:14;;;;;;;15.25;11.38;;;;;;;14.77;82.71;101496.47;5057480;28;20044;-78
2021/09/01 07:07:43;;;;;;;17.52;12.05;;;;;;;14.96;81.47;101491.91;5059250;28;20041;-78
2021/09/01 07:10:10;;;;;;;14.05;11.95;;;;;;;15.11;81.08;101489.06;5057917;28;20040;-79
2021/09/01 07:12:36;;;;;;;20.15;10.98;;;;;;;15.27;80.23;101502.22;5078032;28;20029;-78
2021/09/01 07:15:02;;;;;;;15.95;12.85;;;;;;;15.46;80.10;101492.28;5074942;28;20119;-79
2021/09/01 07:17:28;;;;;;;15.00;11.30;;;;;;;15.69;79.59;101505.34;5055628;28;20077;-78
2021/09/01 07:19:53;;;;;;;17.08;12.60;;;;;;;15.68;78.20;101498.25;5069113;28;20025;-78
2021/09/01 07:22:18;;;;;;;17.23;12.95;;;;;;;15.65;78.32;101498.28;5074540;28;20074;-79
2021/09/01 07:24:44;;;;;;;15.65;11.73;;;;;;;15.56;78.13;101509.88;5070955;28;20438;-78
2021/09/01 07:27:09;;;;;;;14.27;11.43;;;;;;;15.51;78.53;101517.94;5054432;28;20490;-79
2021/09/01 07:29:34;;;;;;;15.00;11.65;;;;;;;15.44;79.04;101510.91;5070073;28;20055;-78
2021/09/01 07:31:59;;;;;;;15.90;12.10;;;;;;;15.29;79.87;101517.28;5070932;28;20403;-79
2021/09/01 07:34:25;;;;;;;15.02;11.68;;;;;;;15.10;80.95;101505.06;5072434;28;20281;-79
2021/09/01 07:36:50;;;;;;;15.07;12.80;;;;;;;15.16;81.91;101498.81;5072004;28;20036;-79
2021/09/01 07:39:15;;;;;;;17.25;13.63;;;;;;;15.39;80.20;101510.09;5072910;28;20032;-78
2021/09/01 07:41:41;;;;;;;19.35;14.15;;;;;;;15.60;79.25;101506.31;5071070;28;20031;-77
2021/09/01 07:44:06;;;;;;;18.92;13.60;;;;;;;15.76;78.83;101513.25;5063422;28;20403;-78
2021/09/01 07:46:32;;;;;;;16.30;13.00;;;;;;;15.76;78.43;101513.25;5069349;28;20040;-79
2021/09/01 07:49:00;;;;;;;17.35;12.43;;;;;;;15.86;78.25;101507.81;5075539;28;20041;-80
2021/09/01 07:51:26;;;;;;;18.10;14.13;;;;;;;15.82;78.04;101508.75;5055329;28;20097;-78
2021/09/01 07:53:51;;;;;;;15.90;13.30;;;;;;;15.68;78.18;101514.22;5080539;28;20432;-79
2021/09/01 07:56:17;;;;;;;18.00;13.60;;;;;;;15.74;78.77;101515.03;5050291;28;20059;-79
2021/09/01 07:58:42;;;;;;;18.73;13.57;;;;;;;15.81;78.74;101518.53;5064299;28;20040;-79
2021/09/01 08:01:07;;;;;;;16.58;12.82;;;;;;;15.98;78.60;101524.53;5061691;28;20033;-79
2021/09/01 08:03:33;;;;;;;16.75;12.35;;;;;;;16.10;77.93;101536.78;5064115;28;20037;-79
2021/09/01 08:05:59;;;;;;;16.92;13.13;;;;;;;15.97;77.82;101537.84;5064319;28;20051;-79
2021/09/01 08:08:25;;;;;;;17.35;13.35;;;;;;;15.94;78.61;101537.88;5069190;28;20041;-79
2021/09/01 08:10:50;;;;;;;18.50;11.82;;;;;;;16.15;77.85;101532.28;5071281;28;20044;-78
2021/09/01 08:13:16;;;;;;;15.75;11.48;;;;;;;16.23;77.16;101540.16;5076219;28;20029;-79
2021/09/01 08:15:41;;;;;;;15.63;11.70;;;;;;;16.36;77.19;101546.22;5078339;28;20037;-79
2021/09/01 08:18:06;;;;;;;14.32;10.82;;;;;;;16.36;77.13;101551.53;5074021;28;20059;-79
2021/09/01 08:20:32;;;;;;;14.90;11.20;;;;;;;16.36;76.71;101556.88;5063563;28;20490;-79
2021/09/01 08:22:57;;;;;;;15.32;10.23;;;;;;;16.41;76.41;101555.03;5063098;28;20040;-79
2021/09/01 08:25:23;;;;;;;16.17;11.07;;;;;;;16.53;75.91;101560.19;5079542;28;20036;-79
2021/09/01 08:27:48;;;;;;;16.23;10.68;;;;;;;16.59;76.64;101562.75;5072831;28;20052;-79
2021/09/01 08:30:14;;;;;;;12.07;9.45;;;;;;;16.63;76.63;101564.47;5077448;28;20037;-79
2021/09/01 08:32:39;;;;;;;13.35;9.60;;;;;;;16.68;75.84;101568.84;5055330;28;20036;-79
2021/09/01 08:35:05;;;;;;;14.43;10.02;;;;;;;16.83;75.41;101558.00;5077554;28;20028;-79
2021/09/01 08:37:30;;;;;;;15.40;10.20;;;;;;;16.89;75.27;101560.56;5077818;28;20509;-79
2021/09/01 08:39:56;;;;;;;12.00;8.48;;;;;;;17.01;74.87;101573.69;5058682;28;20037;-79
2021/09/01 08:42:22;;;;;;;11.45;9.30;;;;;;;17.03;74.53;101571.91;5077939;28;20051;-79
2021/09/01 08:44:48;;;;;;;11.30;8.85;;;;;;;17.25;74.27;101582.19;5057870;28;20053;-80
2021/09/01 08:47:16;;;;;;;11.95;9.00;;;;;;;17.37;73.52;101576.66;5043675;28;20036;-79
2021/09/01 08:49:47;;;;;;;13.40;9.30;;;;;;;17.37;72.93;101568.66;5075152;28;20499;-79
2021/09/01 08:52:13;;;;;;;13.23;9.23;;;;;;;17.58;73.27;101572.72;5060793;28;20509;-79
2021/09/01 08:54:39;;;;;;;12.85;8.30;;;;;;;17.73;72.80;101572.41;5057693;28;20033;-80
2021/09/01 08:57:04;;;;;;;12.32;9.18;;;;;;;17.78;71.69;101572.31;5059832;28;20051;-79
2021/09/01 08:59:30;;;;;;;14.18;8.88;;;;;;;17.87;71.69;101574.00;5057015;28;20499;-78
2021/09/01 09:01:55;;;;;;;11.27;8.40;;;;;;;17.91;71.50;101573.88;5077793;28;20055;-79
2021/09/01 09:04:29;;;;;;;12.07;8.50;;;;;;;17.94;71.86;101567.59;5057482;28;20033;-79
2021/09/01 09:06:57;;;;;;;11.15;8.07;;;;;;;17.95;71.47;101570.25;5052285;28;20043;-79
2021/09/01 09:09:24;;;;;;;10.65;8.18;;;;;;;17.84;71.37;101574.94;5071546;28;20028;-79
2021/09/01 09:11:51;;;;;;;11.40;7.65;;;;;;;17.92;70.71;101564.97;5039483;28;20182;-79
2021/09/01 09:14:30;;;;;;;10.50;8.18;;;;;;;18.01;71.23;101563.03;5019852;28;20021;-80
2021/09/01 09:17:00;;;;;;;12.05;7.53;;;;;;;18.10;69.91;101562.81;5038718;28;20041;-79
2021/09/01 09:19:45;;;;;;;9.98;7.65;;;;;;;18.05;68.04;101562.03;5076138;28;20040;-80
2021/09/01 09:22:11;;;;;;;11.02;7.97;;;;;;;17.93;68.66;101555.16;5069735;28;20037;-80
2021/09/01 09:24:37;;;;;;;13.23;8.40;;;;;;;18.06;68.78;101566.47;5077120;28;20024;-80
2021/09/01 09:27:04;;;;;;;14.45;7.85;;;;;;;18.15;68.02;101558.25;5056539;28;20055;-80
2021/09/01 09:29:30;;;;;;;11.32;7.30;;;;;;;18.30;69.33;101560.59;5058274;28;20039;-80
2021/09/01 09:32:06;;;;;;;12.80;8.70;;;;;;;18.41;69.50;101552.34;5073285;28;20040;-80
2021/09/01 09:34:39;;;;;;;11.25;8.40;;;;;;;18.54;70.11;101553.81;5034822;28;20049;-80
2021/09/01 09:37:06;;;;;;;9.70;7.75;;;;;;;18.45;67.95;101542.47;5051889;28;20163;-80
2021/09/01 09:39:47;;;;;;;10.93;8.38;;;;;;;18.37;67.75;101540.84;5058615;28;20044;-79
2021/09/01 09:42:33;;;;;;;9.70;7.97;;;;;;;18.47;68.34;101532.59;5025494;28;20515;-79
2021/09/01 09:45:18;;;;;;;11.02;7.68;;;;;;;18.81;69.58;101533.63;5053581;28;20056;-80
2021/09/01 09:47:56;;;;;;;9.85;7.43;;;;;;;18.94;67.79;101547.56;5075343;28;20067;-80
2021/09/01 09:50:22;;;;;;;10.73;7.18;;;;;;;19.08;66.00;101544.53;5066316;28;20120;-80
2021/09/01 09:52:49;;;;;;;10.98;7.50;;;;;;;19.19;66.27;101553.16;5077381;28;20036;-80
2021/09/01 09:55:18;;;;;;;10.32;8.07;;;;;;;19.59;65.23;101557.47;5057158;28;20230;-80
2021/09/01 09:58:02;;;;;;;12.13;8.18;;;;;;;19.61;63.54;101552.06;5040930;28;20029;-79
2021/09/01 10:00:29;;;;;;;11.40;7.18;;;;;;;19.58;63.22;101569.09;5056839;28;20032;-81
2021/09/01 10:02:55;;;;;;;11.30;7.85;;;;;;;19.62;63.72;101554.72;5060474;28;20041;-79
2021/09/01 10:05:23;;;;;;;8.63;6.93;;;;;;;19.77;63.30;101548.06;5045148;28;20025;-81
2021/09/01 10:07:48;;;;;;;12.25;8.38;;;;;;;19.62;62.86;101552.06;5066077;28;20040;-80
2021/09/01 10:10:16;;;;;;;11.18;8.30;;;;;;;19.67;63.02;101555.47;5065979;28;20040;-80
2021/09/01 10:12:46;;;;;;;11.95;8.57;;;;;;;19.73;63.12;101558.91;5050828;28;20044;-80
2021/09/01 10:15:18;;;;;;;13.77;8.48;;;;;;;19.78;63.95;101541.81;5063803;28;20123;-80
2021/09/01 10:17:46;;;;;;;11.02;7.80;;;;;;;19.79;64.20;101537.34;5064038;28;20044;-80
2021/09/01 10:20:20;;;;;;;10.35;8.02;;;;;;;19.88;63.22;101545.97;5048993;28;20037;-79
2021/09/01 10:22:58;;;;;;;11.77;8.10;;;;;;;19.79;63.00;101537.34;5053761;28;20552;-80
2021/09/01 10:25:35;;;;;;;8.77;6.63;;;;;;;19.93;62.73;101540.47;5056483;28;20044;-81
2021/09/01 10:28:22;;;;;;;10.40;7.60;;;;;;;19.96;62.21;101544.88;5072192;28;20041;-80
2021/09/01 10:31:02;;;;;;;13.80;7.93;;;;;;;19.90;61.10;101541.44;5063203;28;20075;-79
2021/09/01 10:33:35;;;;;;;10.73;7.80;;;;;;;20.02;61.77;101536.66;5058419;28;20040;-79
2021/09/01 10:36:23;;;;;;;9.55;6.95;;;;;;;20.00;62.07;101544.75;5024745;28;20553;-80
2021/09/01 10:38:49;;;;;;;12.85;7.88;;;;;;;19.85;62.37;101545.19;5072365;28;20033;-80
2021/09/01 10:41:27;;;;;;;10.43;7.30;;;;;;;19.92;61.99;101549.44;5056160;28;20040;-81
2021/09/01 10:43:56;;;;;;;14.25;7.22;;;;;;;20.11;62.12;101547.09;5061715;28;20045;-79
2021/09/01 10:46:21;;;;;;;9.95;6.38;;;;;;;20.47;62.52;101537.06;5077285;28;20029;-80
2021/09/01 10:48:59;;;;;;;11.57;7.38;;;;;;;20.64;60.25;101541.03;5077753;28;20039;-80
2021/09/01 10:51:27;;;;;;;10.73;7.25;;;;;;;20.55;60.98;101545.78;5061042;28;20242;-80
2021/09/01 10:53:52;;;;;;;11.88;9.32;;;;;;;20.45;63.12;101538.03;5080653;28;20127;-80
2021/09/01 10:56:17;;;;;;;10.13;7.70;;;;;;;20.49;63.45;101543.25;5065454;28;20040;-80
2021/09/01 10:58:44;;;;;;;9.30;7.22;;;;;;;20.67;61.32;101538.25;5061595;28;20044;-77
2021/09/01 11:01:22;;;;;;;12.23;8.90;;;;;;;20.71;62.73;101534.56;5075554;28;20045;-80
2021/09/01 11:03:52;;;;;;;10.50;8.20;;;;;;;20.63;63.27;101542.84;5040034;28;20430;-80
2021/09/01 11:06:26;;;;;;;10.23;8.20;;;;;;;20.77;62.91;101543.28;5065699;28;20495;-80
2021/09/01 11:09:03;;;;;;;12.18;8.02;;;;;;;21.18;62.46;101534.78;5068514;28;20447;-79
2021/09/01 11:11:47;;;;;;;10.10;7.40;;;;;;;21.32;59.64;101521.75;5076237;28;20036;-79
2021/09/01 11:14:30;;;;;;;10.45;6.78;;;;;;;21.16;58.86;101539.31;5066060;28;20048;-80
2021/09/01 11:16:57;;;;;;;10.88;6.78;;;;;;;20.85;58.44;101540.34;5050969;28;20029;-80